TimeEST,TemperatureF,Dew PointF,Humidity,Sea Level PressureIn,VisibilityMPH,Wind Direction,Wind SpeedMPH,Gust SpeedMPH,PrecipitationIn,Events,Conditions,WindDirDegrees,DateUTC
12:32 AM,46.0,42.1,86,29.46,10.0,SSW,17.3,25.3,0.00,,Overcast,210,2014-02-21 05:32:00
12:53 AM,44.1,41.0,89,29.49,10.0,WSW,19.6,31.1,0.00,,Overcast,240,2014-02-21 05:53:00
1:16 AM,41.0,35.1,79,29.49,10.0,WSW,17.3,25.3,N/A,,Overcast,240,2014-02-21 06:16:00
1:46 AM,39.0,32.0,76,29.51,10.0,WSW,24.2,33.4,N/A,,Overcast,250,2014-02-21 06:46:00
1:53 AM,39.0,32.0,76,29.53,10.0,WSW,20.7,33.4,N/A,,Overcast,240,2014-02-21 06:53:00
2:53 AM,37.9,30.0,73,29.55,10.0,SW,19.6,28.8,N/A,,Overcast,230,2014-02-21 07:53:00
3:00 AM,37.0,30.0,76,29.54,10.0,SW,21.9,32.2,N/A,,Overcast,230,2014-02-21 08:00:00
3:29 AM,37.0,30.0,76,29.54,10.0,SW,18.4,27.6,N/A,,Scattered Clouds,230,2014-02-21 08:29:00
3:41 AM,37.0,28.9,73,29.53,10.0,SW,18.4,-,N/A,,Mostly Cloudy,230,2014-02-21 08:41:00
3:53 AM,36.0,28.9,76,29.56,10.0,SW,18.4,-,N/A,,Overcast,220,2014-02-21 08:53:00
4:30 AM,37.0,28.9,73,29.54,10.0,SW,18.4,-,N/A,,Overcast,220,2014-02-21 09:30:00
4:53 AM,36.0,28.9,76,29.57,10.0,SW,20.7,-,N/A,,Overcast,220,2014-02-21 09:53:00
5:53 AM,36.0,28.9,76,29.60,10.0,SW,23.0,31.1,N/A,,Overcast,220,2014-02-21 10:53:00
6:08 AM,36.0,28.9,76,29.59,10.0,SW,23.0,32.2,N/A,,Overcast,220,2014-02-21 11:08:00
6:53 AM,36.0,28.0,73,29.60,10.0,SW,20.7,29.9,N/A,,Overcast,230,2014-02-21 11:53:00
7:53 AM,36.0,28.0,73,29.60,10.0,SW,18.4,28.8,N/A,,Partly Cloudy,220,2014-02-21 12:53:00
8:53 AM,37.0,28.0,70,29.61,10.0,SW,21.9,32.2,N/A,,Scattered Clouds,220,2014-02-21 13:53:00
9:37 AM,37.0,28.0,70,29.60,10.0,SW,23.0,33.4,N/A,,Overcast,230,2014-02-21 14:37:00
9:53 AM,37.0,27.0,67,29.61,10.0,SW,26.5,36.8,N/A,,Overcast,220,2014-02-21 14:53:00
10:53 AM,37.0,28.0,70,29.62,10.0,SW,23.0,38.0,N/A,,Partly Cloudy,220,2014-02-21 15:53:00
11:53 AM,37.0,28.0,70,29.65,10.0,SW,26.5,34.5,N/A,,Overcast,230,2014-02-21 16:53:00
12:53 PM,36.0,26.1,67,29.65,10.0,SW,26.5,38.0,N/A,,Overcast,230,2014-02-21 17:53:00
1:53 PM,35.1,25.0,67,29.67,10.0,SW,25.3,40.3,N/A,,Overcast,230,2014-02-21 18:53:00
2:53 PM,36.0,24.1,62,29.69,10.0,SW,29.9,49.5,N/A,,Overcast,230,2014-02-21 19:53:00
3:53 PM,36.0,25.0,64,29.71,10.0,SW,28.8,42.6,N/A,,Scattered Clouds,230,2014-02-21 20:53:00
4:53 PM,36.0,24.1,62,29.74,10.0,SW,27.6,38.0,N/A,,Clear,230,2014-02-21 21:53:00
5:53 PM,35.1,23.0,61,29.77,10.0,SW,21.9,35.7,N/A,,Clear,230,2014-02-21 22:53:00
6:53 PM,35.1,23.0,61,29.78,10.0,SW,24.2,33.4,N/A,,Clear,230,2014-02-21 23:53:00
7:53 PM,34.0,21.9,61,29.82,10.0,SW,19.6,27.6,N/A,,Clear,230,2014-02-22 00:53:00
8:53 PM,34.0,23.0,64,29.84,10.0,SW,18.4,-,N/A,,Clear,230,2014-02-22 01:53:00
9:53 PM,34.0,23.0,64,29.86,10.0,SW,17.3,-,N/A,,Clear,230,2014-02-22 02:53:00
10:53 PM,36.0,24.1,62,29.87,10.0,SW,21.9,26.5,N/A,,Mostly Cloudy,220,2014-02-22 03:53:00
11:53 PM,36.0,24.1,62,29.87,10.0,SW,12.7,-,N/A,,Overcast,230,2014-02-22 04:53:00